createdAt,value
2023-02-24T00:00:25.801Z,84.50
2023-02-24T00:01:25.776Z,85.10
2023-02-24T00:02:25.873Z,83.60
2023-02-24T00:03:25.823Z,75.70
2023-02-24T00:04:25.748Z,86.80
2023-02-24T00:05:25.748Z,81.10
2023-02-24T00:06:25.738Z,90.20
2023-02-24T00:07:25.742Z,79.40
2023-02-24T00:08:25.711Z,74.30
2023-02-24T00:09:25.693Z,91.20
2023-02-24T00:10:25.686Z,84.50
2023-02-24T00:11:25.670Z,78.70
2023-02-24T00:12:25.682Z,89.00
2023-02-24T00:13:25.656Z,84.30
2023-02-24T00:14:25.648Z,82.40
2023-02-24T00:15:25.629Z,93.00
2023-02-24T00:16:25.845Z,78.00
2023-02-24T00:17:25.797Z,86.40
2023-02-24T00:18:25.607Z,83.10
2023-02-24T00:19:25.590Z,85.90
2023-02-24T00:20:25.600Z,81.00
2023-02-24T00:21:25.566Z,85.60
2023-02-24T00:22:25.599Z,88.70
2023-02-24T00:23:25.555Z,80.60
2023-02-24T00:24:25.551Z,76.90
2023-02-24T00:25:25.531Z,75.90
2023-02-24T00:26:25.522Z,80.90
2023-02-24T00:27:25.524Z,78.40
2023-02-24T00:28:25.517Z,77.10
2023-02-24T00:29:25.494Z,80.60
2023-02-24T00:30:25.486Z,93.00
2023-02-24T00:31:25.881Z,70.60
2023-02-24T00:32:25.715Z,77.60
2023-02-24T00:33:25.485Z,92.50
2023-02-24T00:34:25.452Z,80.70
2023-02-24T00:35:25.436Z,75.10
2023-02-24T00:36:25.434Z,83.00
2023-02-24T00:37:25.438Z,81.40
2023-02-24T00:38:25.413Z,87.00
2023-02-24T00:39:25.414Z,76.30
2023-02-24T00:40:25.395Z,85.10
2023-02-24T00:41:25.378Z,80.00
2023-02-24T00:42:25.378Z,80.90
2023-02-24T00:43:25.366Z,88.00
2023-02-24T00:44:25.415Z,80.20
2023-02-24T00:45:25.343Z,73.00
2023-02-24T00:46:25.353Z,77.90
2023-02-24T00:47:25.393Z,84.90
2023-02-24T00:48:25.318Z,80.10
2023-02-24T00:49:25.310Z,83.70
2023-02-24T00:50:25.305Z,83.60
2023-02-24T00:51:25.288Z,76.90
2023-02-24T00:52:25.300Z,83.90
2023-02-24T00:53:25.265Z,90.20
2023-02-24T00:54:25.262Z,94.40
2023-02-24T00:55:25.245Z,76.50
2023-02-24T00:56:25.241Z,91.50
2023-02-24T00:57:25.252Z,86.90
2023-02-24T00:58:25.222Z,83.00
2023-02-24T00:59:25.255Z,97.40
2023-02-24T01:00:25.209Z,79.00
2023-02-24T01:01:25.210Z,86.00
2023-02-24T01:02:25.183Z,85.40
2023-02-24T01:03:25.169Z,90.40
2023-02-24T01:04:25.182Z,88.80
2023-02-24T01:05:25.150Z,97.60
2023-02-24T01:06:25.139Z,78.90
2023-02-24T01:07:25.150Z,80.40
2023-02-24T01:08:25.127Z,89.90
2023-02-24T01:09:25.108Z,78.90
2023-02-24T01:10:25.119Z,88.60
2023-02-24T01:11:25.087Z,91.70
2023-02-24T01:12:25.101Z,82.20
2023-02-24T01:13:25.065Z,79.80
2023-02-24T01:14:25.063Z,88.60
2023-02-24T01:15:25.054Z,83.40
2023-02-24T01:16:25.093Z,93.30
2023-02-24T01:17:25.082Z,86.30
2023-02-24T01:18:25.023Z,86.70
2023-02-24T01:19:25.027Z,91.60
2023-02-24T01:20:25.006Z,91.50
2023-02-24T01:21:24.988Z,79.20
2023-02-24T01:22:24.980Z,90.70
2023-02-24T01:23:24.965Z,86.80
2023-02-24T01:24:25.016Z,90.70
2023-02-24T01:25:24.948Z,94.20
2023-02-24T01:26:24.939Z,88.00
2023-02-24T01:27:24.946Z,81.50
2023-02-24T01:28:24.923Z,76.90
2023-02-24T01:29:24.909Z,92.60
2023-02-24T01:30:24.903Z,83.90
2023-02-24T01:31:25.552Z,91.80
2023-02-24T01:32:25.164Z,88.10
2023-02-24T01:33:24.950Z,84.00
2023-02-24T01:34:24.862Z,93.10
2023-02-24T01:35:24.852Z,88.40
2023-02-24T01:36:24.844Z,85.90
2023-02-24T01:37:24.846Z,93.10
2023-02-24T01:38:24.824Z,94.40
2023-02-24T01:39:24.810Z,104.80
2023-02-24T01:40:24.805Z,88.10
2023-02-24T01:41:24.791Z,90.70
2023-02-24T01:42:24.798Z,89.50
2023-02-24T01:43:24.768Z,90.00
2023-02-24T01:44:24.771Z,84.50
2023-02-24T01:45:24.862Z,89.90
2023-02-24T01:46:24.790Z,91.90
2023-02-24T01:47:24.749Z,86.80
2023-02-24T01:48:24.739Z,83.50
2023-02-24T01:49:24.719Z,83.10
2023-02-24T01:50:24.708Z,92.00
2023-02-24T01:51:24.702Z,82.40
2023-02-24T01:52:24.703Z,88.30
2023-02-24T01:53:24.678Z,82.50
2023-02-24T01:54:24.670Z,73.90
2023-02-24T01:55:24.679Z,87.00
2023-02-24T01:56:24.660Z,89.10
2023-02-24T01:57:24.677Z,73.60
2023-02-24T01:58:24.640Z,80.40
2023-02-24T01:59:24.622Z,87.10
2023-02-24T02:00:24.659Z,83.80
2023-02-24T02:01:24.686Z,79.20
2023-02-24T02:02:24.751Z,86.20
2023-02-24T02:03:24.585Z,79.70
2023-02-24T02:04:24.590Z,78.60
2023-02-24T02:05:24.584Z,76.00
2023-02-24T02:06:24.552Z,77.10
2023-02-24T02:07:24.563Z,79.70
2023-02-24T02:08:24.542Z,70.40
2023-02-24T02:09:24.516Z,80.10
2023-02-24T02:10:24.530Z,82.90
2023-02-24T02:11:24.497Z,72.10
2023-02-24T02:12:24.518Z,82.20
2023-02-24T02:13:24.597Z,70.30
2023-02-24T02:14:24.472Z,75.50
2023-02-24T02:15:24.470Z,79.50
2023-02-24T02:16:24.500Z,83.20
2023-02-24T02:17:24.456Z,70.80
2023-02-24T02:18:24.423Z,59.50
2023-02-24T02:19:24.414Z,68.50
2023-02-24T02:20:24.429Z,73.10
2023-02-24T02:21:24.397Z,64.60
2023-02-24T02:22:24.389Z,67.70
2023-02-24T02:23:24.378Z,72.30
2023-02-24T02:24:24.372Z,65.10
2023-02-24T02:25:24.383Z,71.20
2023-02-24T02:26:24.350Z,69.00
2023-02-24T02:27:24.335Z,74.70
2023-02-24T02:28:24.331Z,72.40
2023-02-24T02:29:24.317Z,63.00
2023-02-24T02:30:24.336Z,63.20
2023-02-24T02:31:25.121Z,65.40
2023-02-24T02:32:24.447Z,65.90
2023-02-24T02:33:24.282Z,61.30
2023-02-24T02:34:24.270Z,70.30
2023-02-24T02:35:24.312Z,59.90
2023-02-24T02:36:24.249Z,64.20
2023-02-24T02:37:24.240Z,65.90
2023-02-24T02:38:24.244Z,56.10
2023-02-24T02:39:24.209Z,60.40
2023-02-24T02:40:24.219Z,67.20
2023-02-24T02:41:24.193Z,56.60
2023-02-24T02:42:24.200Z,59.60
2023-02-24T02:43:24.187Z,55.20
2023-02-24T02:44:24.174Z,67.50
2023-02-24T02:45:24.225Z,54.30
2023-02-24T02:46:24.151Z,54.80
2023-02-24T02:47:24.148Z,65.10
2023-02-24T02:48:24.184Z,53.80
2023-02-24T02:49:24.117Z,71.30
2023-02-24T02:50:24.111Z,61.80
2023-02-24T02:51:24.088Z,70.70
2023-02-24T02:52:24.092Z,62.00
2023-02-24T02:53:24.092Z,61.70
2023-02-24T02:54:24.063Z,64.90
2023-02-24T02:55:24.077Z,64.60
2023-02-24T02:56:24.086Z,72.30
2023-02-24T02:57:24.038Z,66.70
2023-02-24T02:58:24.036Z,72.50
2023-02-24T02:59:24.014Z,77.60
2023-02-24T03:00:24.003Z,79.20
2023-02-24T03:01:24.242Z,73.80
2023-02-24T03:02:23.990Z,71.00
2023-02-24T03:03:23.989Z,83.70
2023-02-24T03:04:23.985Z,72.40
2023-02-24T03:05:23.947Z,83.70
2023-02-24T03:06:23.947Z,81.60
2023-02-24T03:07:23.933Z,75.20
2023-02-24T03:08:23.957Z,80.50
2023-02-24T03:09:23.916Z,82.60
2023-02-24T03:10:23.910Z,90.30
2023-02-24T03:11:23.890Z,94.30
2023-02-24T03:12:23.893Z,85.00
2023-02-24T03:13:23.893Z,90.50
2023-02-24T03:14:23.863Z,86.20
2023-02-24T03:15:23.853Z,92.00
2023-02-24T03:16:23.889Z,83.40
2023-02-24T03:17:23.832Z,94.60
2023-02-24T03:18:23.847Z,98.90
2023-02-24T03:19:23.831Z,96.10
2023-02-24T03:20:23.809Z,107.90
2023-02-24T03:21:23.848Z,104.20
2023-02-24T03:22:23.812Z,113.50
2023-02-24T03:23:23.779Z,110.50
2023-02-24T03:24:23.766Z,112.70
2023-02-24T03:25:23.751Z,113.30
2023-02-24T03:26:23.749Z,107.20
2023-02-24T03:27:23.757Z,112.40
2023-02-24T03:28:23.741Z,123.30
2023-02-24T03:29:23.716Z,114.00
2023-02-24T03:30:23.711Z,91.00
2023-02-24T03:31:24.484Z,121.10
2023-02-24T03:32:23.866Z,103.80
2023-02-24T03:33:23.705Z,124.50
2023-02-24T03:34:23.671Z,121.10
2023-02-24T03:35:23.654Z,110.50
2023-02-24T03:36:23.650Z,111.20
2023-02-24T03:37:23.654Z,106.10
2023-02-24T03:38:23.647Z,128.90
2023-02-24T03:39:23.617Z,119.30
2023-02-24T03:40:23.611Z,108.80
2023-02-24T03:41:23.678Z,114.00
2023-02-24T03:42:23.593Z,118.00
2023-02-24T03:43:23.591Z,117.20
2023-02-24T03:44:23.572Z,132.80
2023-02-24T03:45:23.552Z,122.90
2023-02-24T03:46:23.677Z,130.10
2023-02-24T03:47:23.533Z,113.00
2023-02-24T03:48:23.551Z,120.10
2023-02-24T03:49:23.518Z,126.70
2023-02-24T03:50:23.527Z,103.20
2023-02-24T03:51:23.564Z,124.00
2023-02-24T03:52:23.518Z,114.60
2023-02-24T03:53:23.478Z,108.10
2023-02-24T03:54:23.468Z,115.20
2023-02-24T03:55:23.461Z,119.80
2023-02-24T03:56:23.456Z,120.90
2023-02-24T03:57:23.437Z,123.20
2023-02-24T03:58:23.449Z,111.70
2023-02-24T03:59:23.420Z,109.30
2023-02-24T04:00:23.412Z,103.90
2023-02-24T04:01:23.770Z,99.30
2023-02-24T04:02:23.491Z,100.90
2023-02-24T04:03:23.398Z,113.50
2023-02-24T04:04:23.395Z,124.60
2023-02-24T04:05:23.361Z,114.90
2023-02-24T04:06:23.368Z,88.70
2023-02-24T04:07:23.350Z,91.50
2023-02-24T04:08:23.360Z,109.50
2023-02-24T04:09:23.334Z,106.30
2023-02-24T04:10:23.309Z,109.40
2023-02-24T04:11:23.535Z,106.80
2023-02-24T04:12:23.303Z,101.00
2023-02-24T04:13:23.296Z,96.90
2023-02-24T04:14:23.268Z,80.00
2023-02-24T04:15:23.262Z,95.30
2023-02-24T04:16:23.250Z,75.20
2023-02-24T04:17:23.243Z,91.10
2023-02-24T04:18:23.245Z,87.80
2023-02-24T04:19:23.226Z,99.20
2023-02-24T04:20:23.214Z,91.80
2023-02-24T04:21:23.402Z,86.70
2023-02-24T04:22:23.188Z,98.80
2023-02-24T04:23:23.202Z,86.40
2023-02-24T04:24:23.174Z,90.10
2023-02-24T04:25:23.168Z,88.60
2023-02-24T04:26:23.151Z,88.90
2023-02-24T04:27:23.152Z,92.90
2023-02-24T04:28:23.144Z,96.40
2023-02-24T04:29:23.159Z,89.00
2023-02-24T04:30:23.115Z,89.70
2023-02-24T04:31:23.871Z,64.20
2023-02-24T04:32:23.197Z,80.70
2023-02-24T04:33:23.108Z,87.00
2023-02-24T04:34:23.076Z,81.40
2023-02-24T04:35:23.078Z,77.30
2023-02-24T04:36:23.062Z,75.00
2023-02-24T04:37:23.323Z,77.40
2023-02-24T04:38:23.048Z,83.00
2023-02-24T04:39:23.030Z,72.50
2023-02-24T04:40:23.022Z,90.30
2023-02-24T04:41:23.679Z,80.00
2023-02-24T04:42:22.995Z,69.80
2023-02-24T04:43:23.001Z,79.80
2023-02-24T04:44:22.988Z,82.70
2023-02-24T04:45:22.975Z,81.70
2023-02-24T04:46:22.987Z,77.60
2023-02-24T04:47:22.953Z,77.20
2023-02-24T04:48:22.957Z,68.00
2023-02-24T04:49:22.937Z,74.90
2023-02-24T04:50:23.163Z,75.30
2023-02-24T04:51:23.275Z,71.30
2023-02-24T04:52:22.895Z,63.90
2023-02-24T04:53:22.901Z,80.90
2023-02-24T04:54:22.874Z,62.70
2023-02-24T04:55:22.871Z,65.20
2023-02-24T04:56:22.865Z,72.20
2023-02-24T04:57:22.852Z,58.20
2023-02-24T04:58:22.855Z,55.40
2023-02-24T04:59:22.835Z,56.80
2023-02-24T05:00:22.825Z,67.40
2023-02-24T05:01:23.112Z,68.70
2023-02-24T05:02:22.799Z,63.60
2023-02-24T05:03:22.889Z,59.10
2023-02-24T05:04:22.856Z,61.30
2023-02-24T05:05:22.773Z,66.20
2023-02-24T05:06:22.768Z,67.00
2023-02-24T05:07:22.772Z,62.60
2023-02-24T05:08:22.754Z,60.20
2023-02-24T05:09:22.764Z,63.90
2023-02-24T05:10:22.723Z,60.00
2023-02-24T05:11:23.099Z,60.20
2023-02-24T05:12:22.701Z,53.10
2023-02-24T05:13:22.713Z,52.50
2023-02-24T05:14:22.682Z,52.90
2023-02-24T05:15:29.219Z,47.70
2023-02-24T05:16:22.764Z,53.10
2023-02-24T05:17:22.666Z,53.90
2023-02-24T05:18:22.670Z,45.50
2023-02-24T05:19:22.981Z,49.10
2023-02-24T05:20:22.623Z,52.50
2023-02-24T05:21:22.899Z,49.20
2023-02-24T05:22:22.603Z,56.00
2023-02-24T05:23:22.615Z,62.10
2023-02-24T05:24:22.599Z,46.40
2023-02-24T05:25:22.584Z,51.60
2023-02-24T05:26:22.563Z,48.90
2023-02-24T05:27:22.558Z,45.90
2023-02-24T05:28:22.563Z,39.10
2023-02-24T05:29:22.541Z,45.20
2023-02-24T05:30:22.561Z,53.30
2023-02-24T05:31:22.960Z,44.50
2023-02-24T05:32:22.664Z,43.70
2023-02-24T05:33:22.500Z,46.30
2023-02-24T05:34:22.504Z,45.40
2023-02-24T05:35:22.480Z,47.70
2023-02-24T05:36:22.488Z,50.00
2023-02-24T05:37:22.462Z,47.40
2023-02-24T05:38:22.445Z,49.00
2023-02-24T05:39:22.452Z,44.60
2023-02-24T05:40:22.421Z,48.70
2023-02-24T05:41:22.704Z,51.30
2023-02-24T05:42:22.403Z,48.70
2023-02-24T05:43:22.345Z,46.30
2023-02-24T05:44:22.992Z,51.10
2023-02-24T05:45:22.337Z,44.90
2023-02-24T05:46:22.320Z,50.20
2023-02-24T05:47:22.308Z,54.20
2023-02-24T05:48:22.292Z,42.10
2023-02-24T05:49:22.310Z,53.40
2023-02-24T05:50:22.282Z,49.30
2023-02-24T05:51:22.733Z,49.40
2023-02-24T05:52:22.255Z,46.80
2023-02-24T05:53:22.255Z,40.70
2023-02-24T05:54:22.243Z,50.10
2023-02-24T05:55:22.223Z,61.10
2023-02-24T05:56:22.214Z,45.30
2023-02-24T05:57:22.219Z,49.30
2023-02-24T05:58:22.191Z,43.40
2023-02-24T05:59:22.200Z,43.60
2023-02-24T06:00:22.174Z,51.20
2023-02-24T06:01:22.439Z,47.90
2023-02-24T06:02:22.204Z,57.40
2023-02-24T06:03:22.166Z,45.20
2023-02-24T06:04:22.149Z,44.70
2023-02-24T06:05:22.125Z,46.40
2023-02-24T06:06:22.119Z,45.80
2023-02-24T06:07:22.106Z,54.10
2023-02-24T06:08:22.090Z,53.30
2023-02-24T06:09:22.093Z,50.20
2023-02-24T06:10:22.070Z,56.30
2023-02-24T06:11:22.555Z,43.50
2023-02-24T06:12:22.057Z,54.80
2023-02-24T06:13:22.050Z,61.10
2023-02-24T06:14:22.049Z,50.40
2023-02-24T06:15:22.027Z,52.10
2023-02-24T06:16:22.069Z,54.20
2023-02-24T06:17:22.011Z,52.20
2023-02-24T06:18:21.993Z,52.90
2023-02-24T06:19:22.005Z,50.30
2023-02-24T06:20:21.976Z,50.10
2023-02-24T06:21:22.422Z,58.10
2023-02-24T06:22:21.955Z,53.30
2023-02-24T06:23:21.952Z,57.20
2023-02-24T06:24:21.955Z,55.10
2023-02-24T06:25:21.939Z,53.80
2023-02-24T06:26:21.929Z,43.50
2023-02-24T06:27:21.987Z,39.70
2023-02-24T06:28:21.928Z,43.90
2023-02-24T06:29:21.908Z,47.40
2023-02-24T06:30:21.897Z,42.60
2023-02-24T06:31:22.171Z,49.40
2023-02-24T06:32:21.979Z,42.00
2023-02-24T06:33:21.850Z,50.70
2023-02-24T06:34:21.857Z,46.40
2023-02-24T06:35:21.852Z,51.80
2023-02-24T06:36:21.822Z,46.10
2023-02-24T06:37:21.817Z,46.20
2023-02-24T06:38:21.800Z,49.20
2023-02-24T06:39:21.815Z,53.40
2023-02-24T06:40:21.781Z,46.70
2023-02-24T06:41:22.164Z,43.10
2023-02-24T06:42:21.773Z,47.50
2023-02-24T06:43:21.755Z,43.90
2023-02-24T06:44:21.758Z,48.20
2023-02-24T06:45:21.740Z,47.90
2023-02-24T06:46:21.783Z,43.20
2023-02-24T06:47:21.717Z,38.30
2023-02-24T06:48:21.704Z,38.40
2023-02-24T06:49:21.727Z,43.40
2023-02-24T06:50:21.722Z,43.90
2023-02-24T06:51:22.037Z,41.90
2023-02-24T06:52:21.663Z,42.20
2023-02-24T06:53:21.665Z,45.00
2023-02-24T06:54:21.641Z,40.70
2023-02-24T06:55:21.652Z,35.30
2023-02-24T06:56:21.620Z,39.30
2023-02-24T06:57:21.616Z,34.00
2023-02-24T06:58:21.604Z,30.30
2023-02-24T06:59:21.624Z,36.30
2023-02-24T07:00:21.582Z,28.20
2023-02-24T07:01:21.975Z,31.50
2023-02-24T07:02:21.561Z,30.40
2023-02-24T07:03:21.557Z,26.70
2023-02-24T07:04:21.603Z,34.00
2023-02-24T07:05:21.535Z,35.70
2023-02-24T07:06:21.528Z,30.80
2023-02-24T07:07:21.513Z,32.90
2023-02-24T07:08:21.503Z,33.10
2023-02-24T07:09:21.506Z,25.30
2023-02-24T07:10:21.484Z,29.90
2023-02-24T07:11:21.837Z,30.70
2023-02-24T07:12:21.455Z,29.40
2023-02-24T07:13:21.463Z,27.50
2023-02-24T07:14:21.467Z,35.10
2023-02-24T07:15:21.432Z,32.20
2023-02-24T07:16:21.448Z,31.60
2023-02-24T07:17:21.412Z,26.60
2023-02-24T07:18:21.403Z,34.80
2023-02-24T07:19:21.429Z,27.10
2023-02-24T07:20:21.377Z,28.40
2023-02-24T07:21:21.763Z,33.20
2023-02-24T07:22:21.363Z,35.70
2023-02-24T07:23:21.352Z,33.40
2023-02-24T07:24:21.354Z,40.10
2023-02-24T07:25:21.333Z,30.50
2023-02-24T07:26:21.320Z,34.90
2023-02-24T07:27:21.315Z,33.40
2023-02-24T07:28:21.300Z,33.40
2023-02-24T07:29:21.307Z,41.10
2023-02-24T07:30:21.279Z,30.60
2023-02-24T07:31:21.757Z,31.20
2023-02-24T07:32:21.423Z,27.00
2023-02-24T07:33:21.250Z,32.00
2023-02-24T07:34:21.273Z,30.70
2023-02-24T07:35:21.231Z,25.80
2023-02-24T07:36:21.217Z,31.20
2023-02-24T07:37:21.228Z,29.30
2023-02-24T07:38:21.199Z,36.90
2023-02-24T07:39:21.198Z,33.40
2023-02-24T07:40:21.178Z,27.40
2023-02-24T07:41:21.490Z,29.80
2023-02-24T07:42:21.156Z,34.10
2023-02-24T07:43:21.150Z,42.70
2023-02-24T07:44:21.155Z,31.60
2023-02-24T07:45:21.163Z,36.50
2023-02-24T07:46:21.198Z,38.60
2023-02-24T07:47:21.110Z,31.50
2023-02-24T07:48:21.094Z,34.20
2023-02-24T07:49:21.140Z,36.80
2023-02-24T07:50:21.077Z,27.50
2023-02-24T07:51:21.402Z,26.10
2023-02-24T07:52:21.058Z,33.40
2023-02-24T07:53:21.047Z,33.30
2023-02-24T07:54:21.048Z,32.70
2023-02-24T07:55:21.040Z,38.90
2023-02-24T07:56:21.018Z,27.10
2023-02-24T07:57:21.007Z,34.20
2023-02-24T07:58:20.989Z,28.10
2023-02-24T07:59:20.999Z,33.40
2023-02-24T08:00:20.970Z,29.00
2023-02-24T08:01:21.335Z,29.80
2023-02-24T08:02:20.990Z,27.90
2023-02-24T08:03:20.949Z,30.80
2023-02-24T08:04:20.953Z,29.80
2023-02-24T08:05:20.967Z,26.90
2023-02-24T08:06:20.910Z,28.00
2023-02-24T08:07:20.906Z,28.40
2023-02-24T08:08:20.925Z,32.40
2023-02-24T08:09:20.883Z,27.90
2023-02-24T08:10:20.887Z,32.60
2023-02-24T08:11:21.149Z,33.90
2023-02-24T08:12:20.854Z,28.30
2023-02-24T08:13:20.845Z,26.60
2023-02-24T08:14:20.833Z,32.70
2023-02-24T08:15:20.839Z,32.00
2023-02-24T08:16:20.832Z,31.00
2023-02-24T08:17:20.828Z,33.70
2023-02-24T08:18:20.791Z,28.30
2023-02-24T08:19:20.822Z,28.60
2023-02-24T08:20:20.794Z,26.60
2023-02-24T08:21:21.105Z,28.90
2023-02-24T08:22:20.754Z,36.60
2023-02-24T08:23:20.745Z,32.60
2023-02-24T08:24:20.736Z,35.50
2023-02-24T08:25:20.739Z,35.30
2023-02-24T08:26:20.858Z,33.40
2023-02-24T08:27:20.706Z,30.00
2023-02-24T08:28:20.707Z,27.10
2023-02-24T08:29:20.683Z,32.80
2023-02-24T08:30:20.710Z,34.60
2023-02-24T08:31:21.325Z,32.50
2023-02-24T08:32:21.034Z,34.20
2023-02-24T08:33:20.648Z,31.30
2023-02-24T08:34:20.640Z,39.80
2023-02-24T08:35:20.649Z,31.30
2023-02-24T08:36:20.632Z,28.30
2023-02-24T08:37:20.604Z,35.00
2023-02-24T08:38:20.676Z,35.40
2023-02-24T08:39:20.592Z,35.80
2023-02-24T08:40:20.618Z,31.50
2023-02-24T08:41:21.121Z,27.90
2023-02-24T08:42:20.592Z,33.60
2023-02-24T08:43:20.554Z,34.50
2023-02-24T08:44:20.549Z,33.00
2023-02-24T08:45:20.542Z,30.60
2023-02-24T08:46:20.535Z,34.40
2023-02-24T08:47:20.509Z,31.10
2023-02-24T08:48:20.503Z,27.30
2023-02-24T08:49:20.492Z,35.50
2023-02-24T08:50:20.504Z,34.40
2023-02-24T08:51:20.742Z,33.90
2023-02-24T08:52:20.486Z,30.50
2023-02-24T08:53:20.460Z,31.50
2023-02-24T08:54:20.447Z,33.80
2023-02-24T08:55:20.445Z,33.00
2023-02-24T08:56:20.738Z,31.60
2023-02-24T08:57:20.426Z,31.60
2023-02-24T08:58:20.407Z,31.80
2023-02-24T08:59:20.404Z,35.70
2023-02-24T09:00:20.427Z,30.60
2023-02-24T09:01:20.987Z,30.40
2023-02-24T09:02:20.374Z,29.50
2023-02-24T09:03:20.397Z,37.00
2023-02-24T09:04:20.410Z,38.40
2023-02-24T09:05:20.419Z,29.40
2023-02-24T09:06:20.353Z,33.60
2023-02-24T09:07:20.334Z,34.30
2023-02-24T09:08:21.172Z,29.70
2023-02-24T09:09:20.298Z,30.50
2023-02-24T09:10:20.355Z,33.10
2023-02-24T09:11:20.709Z,36.40
2023-02-24T09:12:20.274Z,35.40
2023-02-24T09:13:20.255Z,31.40
2023-02-24T09:14:27.494Z,32.80
2023-02-24T09:15:20.256Z,34.90
2023-02-24T09:16:20.331Z,33.30
2023-02-24T09:17:20.218Z,37.00
2023-02-24T09:18:20.228Z,36.40
2023-02-24T09:19:20.254Z,33.00
2023-02-24T09:20:20.231Z,33.30
2023-02-24T09:21:20.504Z,30.60
2023-02-24T09:22:21.678Z,35.40
2023-02-24T09:23:20.463Z,34.20
2023-02-24T09:24:20.154Z,33.90
2023-02-24T09:25:20.153Z,36.50
2023-02-24T09:26:20.133Z,29.20
2023-02-24T09:27:20.120Z,36.60
2023-02-24T09:28:20.294Z,41.70
2023-02-24T09:29:20.097Z,33.60
2023-02-24T09:30:20.096Z,38.50
2023-02-24T09:31:20.904Z,35.40
2023-02-24T09:32:20.216Z,35.60
2023-02-24T09:33:20.056Z,36.90
2023-02-24T09:34:20.048Z,45.20
2023-02-24T09:35:20.034Z,38.10
2023-02-24T09:36:20.421Z,42.20
2023-02-24T09:37:20.053Z,43.20
2023-02-24T09:38:20.015Z,38.30
2023-02-24T09:39:20.000Z,49.40
2023-02-24T09:40:19.999Z,45.80
2023-02-24T09:41:20.002Z,47.60
2023-02-24T09:42:19.979Z,39.30
2023-02-24T09:43:19.963Z,51.40
2023-02-24T09:44:19.961Z,49.20
2023-02-24T09:45:20.060Z,47.50
2023-02-24T09:46:20.123Z,51.80
2023-02-24T09:47:19.939Z,52.80
2023-02-24T09:48:19.914Z,57.90
2023-02-24T09:49:19.900Z,57.00
2023-02-24T09:50:40.359Z,54.80
2023-02-24T09:51:20.308Z,57.70
2023-02-24T09:52:19.885Z,57.40
2023-02-24T09:53:19.861Z,58.70
2023-02-24T09:54:19.868Z,62.50
2023-02-24T09:55:19.843Z,59.60
2023-02-24T09:56:19.882Z,63.70
2023-02-24T09:57:19.843Z,64.80
2023-02-24T09:58:19.833Z,68.80
2023-02-24T09:59:19.800Z,72.90
2023-02-24T10:00:19.814Z,75.30
2023-02-24T10:01:20.002Z,87.00
2023-02-24T10:02:19.820Z,79.70
2023-02-24T10:03:19.969Z,83.70
2023-02-24T10:04:21.409Z,82.10
2023-02-24T10:05:19.739Z,91.80
2023-02-24T10:06:19.789Z,89.80
2023-02-24T10:07:19.717Z,96.10
2023-02-24T10:08:19.714Z,81.00
2023-02-24T10:09:19.700Z,79.30
2023-02-24T10:10:20.010Z,91.80
2023-02-24T10:11:19.954Z,89.40
2023-02-24T10:12:19.695Z,105.40
2023-02-24T10:13:19.671Z,100.50
2023-02-24T10:14:19.684Z,84.30
2023-02-24T10:15:19.652Z,117.10
2023-02-24T10:16:19.671Z,107.70
2023-02-24T10:17:22.336Z,112.40
2023-02-24T10:18:19.632Z,109.10
2023-02-24T10:19:19.657Z,129.60
2023-02-24T10:20:19.593Z,118.50
2023-02-24T10:21:19.957Z,128.00
2023-02-24T10:22:19.574Z,116.40
2023-02-24T10:23:19.668Z,123.20
2023-02-24T10:24:19.564Z,122.80
2023-02-24T10:25:22.541Z,139.40
2023-02-24T10:26:19.564Z,110.50
2023-02-24T10:27:19.517Z,121.20
2023-02-24T10:28:19.527Z,127.40
2023-02-24T10:29:19.504Z,113.70
2023-02-24T10:30:19.548Z,129.70
2023-02-24T10:31:20.004Z,114.20
2023-02-24T10:32:19.747Z,98.70
2023-02-24T10:33:19.459Z,116.70
2023-02-24T10:34:19.456Z,120.20
2023-02-24T10:35:19.458Z,114.60
2023-02-24T10:36:19.487Z,107.50
2023-02-24T10:37:28.315Z,116.50
2023-02-24T10:38:19.423Z,126.90
2023-02-24T10:39:19.399Z,115.40
2023-02-24T10:40:19.413Z,98.90
2023-02-24T10:41:19.695Z,132.00
2023-02-24T10:42:19.387Z,123.40
2023-02-24T10:43:19.485Z,135.70
2023-02-24T10:44:19.353Z,119.90
2023-02-24T10:45:20.679Z,114.20
2023-02-24T10:46:24.260Z,132.40
2023-02-24T10:47:19.333Z,154.40
2023-02-24T10:48:20.258Z,152.10
2023-02-24T10:49:19.297Z,121.00
2023-02-24T10:50:19.355Z,113.20
2023-02-24T10:51:19.653Z,129.90
2023-02-24T10:52:19.289Z,123.90
2023-02-24T10:53:19.254Z,129.20
2023-02-24T10:54:19.249Z,133.20
2023-02-24T10:55:19.233Z,149.50
2023-02-24T10:56:19.598Z,136.90
2023-02-24T10:57:19.255Z,124.30
2023-02-24T10:58:19.220Z,148.60
2023-02-24T10:59:19.235Z,135.50
2023-02-24T11:00:19.198Z,129.00
2023-02-24T11:01:19.227Z,133.50
2023-02-24T11:02:19.237Z,129.50
2023-02-24T11:03:31.303Z,135.90
2023-02-24T11:04:19.159Z,134.80
2023-02-24T11:05:19.136Z,115.90
2023-02-24T11:06:19.124Z,109.70
2023-02-24T11:07:19.163Z,136.90
2023-02-24T11:08:19.104Z,155.50
2023-02-24T11:09:19.106Z,118.00
2023-02-24T11:10:19.183Z,124.60
2023-02-24T11:11:19.584Z,168.90
2023-02-24T11:12:19.092Z,145.30
2023-02-24T11:13:19.058Z,159.70
2023-02-24T11:14:19.058Z,148.10
2023-02-24T11:15:19.040Z,167.90
2023-02-24T11:16:19.103Z,171.00
2023-02-24T11:17:19.096Z,159.10
2023-02-24T11:18:19.029Z,122.90
2023-02-24T11:19:18.988Z,126.30
2023-02-24T11:20:18.980Z,145.00
2023-02-24T11:21:19.148Z,166.10
2023-02-24T11:22:18.996Z,110.00
2023-02-24T11:23:18.948Z,135.50
2023-02-24T11:24:18.942Z,131.00
2023-02-24T11:25:18.927Z,154.60
2023-02-24T11:26:18.936Z,123.90
2023-02-24T11:27:18.932Z,140.00
2023-02-24T11:28:18.928Z,149.80
2023-02-24T11:29:18.884Z,148.50
2023-02-24T11:30:19.048Z,166.20
2023-02-24T11:31:19.037Z,164.90
2023-02-24T11:32:19.114Z,165.10
2023-02-24T11:33:18.849Z,151.60
2023-02-24T11:34:18.846Z,174.80
2023-02-24T11:35:18.824Z,174.40
2023-02-24T11:36:18.822Z,165.50
2023-02-24T11:37:18.845Z,176.50
2023-02-24T11:38:18.801Z,171.30
2023-02-24T11:39:21.532Z,169.10
2023-02-24T11:40:18.778Z,151.20
2023-02-24T11:41:18.821Z,139.30
2023-02-24T11:42:18.781Z,149.40
2023-02-24T11:43:18.741Z,149.80
2023-02-24T11:44:18.742Z,147.20
2023-02-24T11:45:18.726Z,126.10
2023-02-24T11:46:18.741Z,150.80
2023-02-24T11:47:18.781Z,149.80
2023-02-24T11:48:18.707Z,160.40
2023-02-24T11:49:18.694Z,139.10
2023-02-24T11:50:18.690Z,164.10
2023-02-24T11:51:18.727Z,161.10
2023-02-24T11:52:18.673Z,134.30
2023-02-24T11:53:18.645Z,154.30
2023-02-24T11:54:18.641Z,133.20
2023-02-24T11:55:18.646Z,155.50
2023-02-24T11:56:18.622Z,164.10
2023-02-24T11:57:18.663Z,148.70
2023-02-24T11:58:18.605Z,148.70
2023-02-24T11:59:18.593Z,165.40
2023-02-24T12:00:18.624Z,151.60
2023-02-24T12:01:18.777Z,155.00
2023-02-24T12:02:18.597Z,165.90
2023-02-24T12:03:18.623Z,137.60
2023-02-24T12:04:18.559Z,135.00
2023-02-24T12:05:18.526Z,131.60
2023-02-24T12:06:18.696Z,138.50
2023-02-24T12:07:18.524Z,161.40
2023-02-24T12:08:18.497Z,144.70
2023-02-24T12:09:18.485Z,129.50
2023-02-24T12:10:18.476Z,125.00
2023-02-24T12:11:18.505Z,135.30
2023-02-24T12:12:18.476Z,134.90
2023-02-24T12:13:18.450Z,119.50
2023-02-24T12:14:18.436Z,118.40
2023-02-24T12:15:18.428Z,124.30
2023-02-24T12:16:18.452Z,118.30
2023-02-24T12:17:18.631Z,140.20
2023-02-24T12:18:18.401Z,149.30
2023-02-24T12:19:18.382Z,137.50
2023-02-24T12:20:18.395Z,150.50
2023-02-24T12:21:18.587Z,138.00
2023-02-24T12:22:18.382Z,122.00
2023-02-24T12:23:18.370Z,120.90
2023-02-24T12:24:18.341Z,128.70
2023-02-24T12:25:18.334Z,117.50
2023-02-24T12:26:18.324Z,126.30
2023-02-24T12:27:18.345Z,113.70
2023-02-24T12:28:18.292Z,106.40
2023-02-24T12:29:18.335Z,130.90
2023-02-24T12:30:18.333Z,119.90
2023-02-24T12:31:18.482Z,155.70
2023-02-24T12:32:18.400Z,115.40
2023-02-24T12:33:18.313Z,147.40
2023-02-24T12:34:18.348Z,140.40
2023-02-24T12:35:18.304Z,137.30
2023-02-24T12:36:18.257Z,139.60
2023-02-24T12:37:18.208Z,147.60
2023-02-24T12:38:18.212Z,151.60
2023-02-24T12:39:18.206Z,139.30
2023-02-24T12:40:18.166Z,117.00
2023-02-24T12:41:18.157Z,119.90
2023-02-24T12:42:18.148Z,134.90
2023-02-24T12:43:18.158Z,145.70
2023-02-24T12:44:18.132Z,146.30
2023-02-24T12:45:18.123Z,139.00
2023-02-24T12:46:18.140Z,146.60